Ripley, California
Current Conditions -  °F | °C
As of 5:52 PM on Saturday 25 Oct 2014 (Local Time) from KBLH Reporting Station
Clear Clear  
Wind Chill: 91°   Ceiling: Unl
Heat Index: 91°   Visibility: 10mi
Dew Point: 49°   Wind: 0mph
Humidity: 23%   Direction: NA
Pressure: 29.84"   Gusts: NA
Location:  33.5664°N, 114.628°W
Report Text: KBLH 260052Z AUTO 00000KT 10SM CLR 33/09 A2984 RMK AO2 SLP101 T03280094 $
Loading
Personal Weather Stations






























Interactive Weather Map
Tropical Storm Tracking
New forecast layout! Learn more

10-Day Weather Forecast

Advertisements
Track Severe Weather on mobile